createdAt,value
2018-05-09T00:00:07.433Z,3.90
2018-05-09T00:01:07.352Z,3.80
2018-05-09T00:03:00.630Z,3.80
2018-05-09T00:04:00.571Z,3.80
2018-05-09T00:05:53.872Z,4.10
2018-05-09T00:06:53.791Z,4.20
2018-05-09T00:08:47.174Z,3.70
2018-05-09T00:09:47.015Z,4.00
2018-05-09T00:11:40.341Z,3.70
2018-05-09T00:12:40.262Z,3.70
2018-05-09T00:14:33.562Z,3.40
2018-05-09T00:15:33.482Z,3.70
2018-05-09T00:17:26.754Z,3.70
2018-05-09T00:18:26.696Z,4.10
2018-05-09T00:20:19.999Z,3.70
2018-05-09T00:21:19.915Z,3.60
2018-05-09T00:23:13.197Z,3.90
2018-05-09T00:24:13.138Z,3.90
2018-05-09T00:26:06.435Z,4.40
2018-05-09T00:27:06.357Z,4.60
2018-05-09T00:28:59.643Z,3.60
2018-05-09T00:29:59.577Z,4.00
2018-05-09T00:31:52.876Z,4.10
2018-05-09T00:32:52.796Z,4.40
2018-05-09T00:34:46.098Z,4.00
2018-05-09T00:35:46.019Z,4.30
2018-05-09T00:37:39.403Z,4.30
2018-05-09T00:38:39.240Z,4.40
2018-05-09T00:40:32.539Z,3.80
2018-05-09T00:41:32.460Z,4.00
2018-05-09T00:43:25.740Z,4.10
2018-05-09T00:44:25.683Z,4.20
2018-05-09T00:46:18.979Z,4.60
2018-05-09T00:47:18.901Z,4.60
2018-05-09T00:49:13.030Z,4.30
2018-05-09T00:50:12.979Z,3.80
2018-05-09T00:52:06.868Z,3.90
2018-05-09T00:53:06.261Z,4.10
2018-05-09T00:54:59.665Z,4.40
2018-05-09T00:55:59.484Z,4.50
2018-05-09T00:57:52.765Z,4.20
2018-05-09T00:58:52.703Z,4.30
2018-05-09T01:00:46.004Z,4.10
2018-05-09T01:01:45.925Z,4.40
2018-05-09T01:03:39.201Z,4.40
2018-05-09T01:04:39.140Z,4.50
2018-05-09T01:06:32.439Z,4.00
2018-05-09T01:07:32.377Z,4.60
2018-05-09T01:09:25.639Z,4.40
2018-05-09T01:10:25.577Z,4.50
2018-05-09T01:12:19.874Z,4.10
2018-05-09T01:13:19.794Z,4.00
2018-05-09T01:15:13.094Z,4.40
2018-05-09T01:16:13.017Z,3.90
2018-05-09T01:18:06.325Z,5.00
2018-05-09T01:19:06.264Z,4.90
2018-05-09T01:20:59.075Z,4.60
2018-05-09T01:21:58.990Z,4.40
2018-05-09T01:23:52.322Z,4.30
2018-05-09T01:24:52.260Z,4.90
2018-05-09T01:26:45.558Z,4.80
2018-05-09T01:27:45.478Z,4.40
2018-05-09T01:29:38.759Z,4.10
2018-05-09T01:30:38.697Z,4.40
2018-05-09T01:32:32.100Z,4.40
2018-05-09T01:33:31.918Z,4.90
2018-05-09T01:35:26.211Z,4.30
2018-05-09T01:36:26.132Z,4.40
2018-05-09T01:38:20.414Z,4.70
2018-05-09T01:39:20.350Z,4.90
2018-05-09T01:41:13.650Z,4.60
2018-05-09T01:42:13.566Z,4.50
2018-05-09T01:44:06.952Z,4.50
2018-05-09T01:45:06.784Z,5.00
2018-05-09T01:47:00.083Z,4.90
2018-05-09T01:48:00.003Z,4.80
2018-05-09T01:49:53.300Z,4.70
2018-05-09T01:50:53.222Z,4.70
2018-05-09T01:52:46.519Z,5.00
2018-05-09T01:53:46.439Z,4.60
2018-05-09T01:55:39.839Z,4.90
2018-05-09T01:56:39.656Z,5.10
2018-05-09T01:58:32.936Z,5.00
2018-05-09T01:59:32.872Z,5.40
2018-05-09T02:01:26.169Z,5.50
2018-05-09T02:02:26.089Z,5.70
2018-05-09T02:04:19.366Z,5.40
2018-05-09T02:05:19.307Z,5.30
2018-05-09T02:07:12.608Z,5.10
2018-05-09T02:08:12.528Z,4.90
2018-05-09T02:10:05.842Z,5.20
2018-05-09T02:11:05.743Z,5.00
2018-05-09T02:12:59.022Z,5.20
2018-05-09T02:13:58.960Z,5.30
2018-05-09T02:15:52.348Z,5.30
2018-05-09T02:16:52.260Z,5.30
2018-05-09T02:18:45.641Z,5.30
2018-05-09T02:19:45.481Z,5.30
2018-05-09T02:21:38.877Z,5.60
2018-05-09T02:22:38.697Z,5.60
2018-05-09T02:24:31.980Z,5.30
2018-05-09T02:25:31.915Z,4.90
2018-05-09T02:27:25.196Z,5.40
2018-05-09T02:28:25.117Z,5.10
2018-05-09T02:30:18.426Z,5.60
2018-05-09T02:31:18.379Z,5.50
2018-05-09T02:33:11.623Z,5.40
2018-05-09T02:34:11.560Z,5.20
2018-05-09T02:36:04.857Z,5.20
2018-05-09T02:37:04.776Z,5.40
2018-05-09T02:38:58.085Z,5.60
2018-05-09T02:39:58.024Z,5.20
2018-05-09T02:41:51.423Z,5.40
2018-05-09T02:42:51.238Z,5.20
2018-05-09T02:44:44.520Z,5.40
2018-05-09T02:45:44.461Z,5.40
2018-05-09T02:47:37.756Z,5.40
2018-05-09T02:48:37.679Z,5.20
2018-05-09T02:50:31.081Z,5.60
2018-05-09T02:51:30.895Z,5.50
2018-05-09T02:53:24.173Z,5.80
2018-05-09T02:54:24.109Z,5.60
2018-05-09T02:56:17.408Z,5.90
2018-05-09T02:57:17.329Z,5.60
2018-05-09T02:59:10.607Z,6.20
2018-05-09T03:00:10.543Z,5.80
2018-05-09T03:02:03.840Z,5.90
2018-05-09T03:03:03.764Z,6.20
2018-05-09T03:04:57.141Z,6.00
2018-05-09T03:05:56.979Z,5.70
2018-05-09T03:07:50.345Z,6.10
2018-05-09T03:08:50.264Z,6.10
2018-05-09T03:10:43.560Z,5.90
2018-05-09T03:11:43.481Z,5.70
2018-05-09T03:13:36.860Z,6.30
2018-05-09T03:14:36.693Z,6.00
2018-05-09T03:16:29.990Z,6.20
2018-05-09T03:17:29.905Z,6.40
2018-05-09T03:19:23.192Z,6.40
2018-05-09T03:20:23.140Z,6.60
2018-05-09T03:22:16.523Z,6.40
2018-05-09T03:23:16.338Z,6.00
2018-05-09T03:25:09.726Z,5.90
2018-05-09T03:26:09.555Z,6.40
2018-05-09T03:28:02.953Z,6.40
2018-05-09T03:29:02.769Z,6.60
2018-05-09T03:30:56.064Z,6.60
2018-05-09T03:31:56.088Z,6.80
2018-05-09T03:33:49.272Z,6.40
2018-05-09T03:34:49.220Z,6.30
2018-05-09T03:36:42.506Z,6.50
2018-05-09T03:37:42.425Z,6.20
2018-05-09T03:39:35.703Z,6.70
2018-05-09T03:40:35.640Z,6.70
2018-05-09T03:42:29.937Z,6.60
2018-05-09T03:43:29.856Z,6.90
2018-05-09T03:45:23.156Z,7.00
2018-05-09T03:46:23.071Z,7.40
2018-05-09T03:48:16.370Z,7.30
2018-05-09T03:49:16.290Z,8.20
2018-05-09T03:51:09.583Z,6.90
2018-05-09T03:52:09.503Z,6.80
2018-05-09T03:54:02.780Z,7.50
2018-05-09T03:55:02.718Z,6.90
2018-05-09T03:56:56.117Z,6.40
2018-05-09T03:57:55.935Z,6.90
2018-05-09T03:59:49.208Z,6.60
2018-05-09T04:00:49.149Z,7.10
2018-05-09T04:02:42.547Z,7.20
2018-05-09T04:03:42.361Z,6.90
2018-05-09T04:05:35.637Z,7.10
2018-05-09T04:06:35.575Z,6.40
2018-05-09T04:08:28.873Z,7.10
2018-05-09T04:09:28.854Z,7.20
2018-05-09T04:11:22.093Z,7.20
2018-05-09T04:12:22.013Z,7.40
2018-05-09T04:14:15.393Z,6.90
2018-05-09T04:15:15.226Z,7.50
2018-05-09T04:17:08.522Z,7.40
2018-05-09T04:18:08.442Z,7.20
2018-05-09T04:20:01.830Z,7.40
2018-05-09T04:21:01.658Z,7.50
2018-05-09T04:22:54.953Z,6.90
2018-05-09T04:23:54.874Z,7.50
2018-05-09T04:25:48.255Z,7.30
2018-05-09T04:26:48.090Z,8.00
2018-05-09T04:28:42.381Z,7.60
2018-05-09T04:29:42.299Z,7.30
2018-05-09T04:31:35.594Z,7.80
2018-05-09T04:32:35.515Z,7.60
2018-05-09T04:34:28.794Z,7.80
2018-05-09T04:35:28.728Z,7.70
2018-05-09T04:37:22.127Z,8.10
2018-05-09T04:38:21.934Z,7.90
2018-05-09T04:40:15.211Z,8.20
2018-05-09T04:41:15.150Z,8.70
2018-05-09T04:43:08.549Z,8.50
2018-05-09T04:44:08.364Z,8.10
2018-05-09T04:46:01.642Z,7.70
2018-05-09T04:47:01.578Z,7.30
2018-05-09T04:48:54.876Z,8.00
2018-05-09T04:49:54.828Z,7.70
2018-05-09T04:51:48.091Z,8.10
2018-05-09T04:52:48.009Z,7.80
2018-05-09T04:54:41.287Z,8.20
2018-05-09T04:55:41.407Z,7.40
2018-05-09T04:57:34.627Z,7.70
2018-05-09T04:58:34.439Z,7.40
2018-05-09T05:00:27.719Z,7.60
2018-05-09T05:01:27.673Z,8.30
2018-05-09T05:03:20.959Z,8.30
2018-05-09T05:04:20.876Z,7.80
2018-05-09T05:06:15.153Z,8.20
2018-05-09T05:07:15.089Z,7.80
2018-05-09T05:09:09.385Z,7.60
2018-05-09T05:10:09.305Z,7.60
2018-05-09T05:12:02.598Z,8.00
2018-05-09T05:13:02.516Z,7.60
2018-05-09T05:14:55.898Z,7.60
2018-05-09T05:15:55.729Z,7.10
2018-05-09T05:17:49.026Z,7.30
2018-05-09T05:18:48.944Z,7.50
2018-05-09T05:20:42.327Z,7.20
2018-05-09T05:21:42.160Z,7.00
2018-05-09T05:23:35.456Z,7.30
2018-05-09T05:24:35.375Z,7.10
2018-05-09T05:26:28.649Z,7.10
2018-05-09T05:27:28.590Z,7.80
2018-05-09T05:29:21.875Z,7.70
2018-05-09T05:30:21.792Z,7.60
2018-05-09T05:32:15.089Z,7.70
2018-05-09T05:33:15.010Z,7.30
2018-05-09T05:35:08.323Z,7.70
2018-05-09T05:36:08.260Z,8.00
2018-05-09T05:38:01.546Z,7.60
2018-05-09T05:39:01.466Z,8.10
2018-05-09T05:40:54.740Z,7.80
2018-05-09T05:41:54.679Z,7.30
2018-05-09T05:43:48.080Z,7.50
2018-05-09T05:44:47.898Z,7.20
2018-05-09T05:46:41.172Z,7.50
2018-05-09T05:47:41.110Z,7.30
2018-05-09T05:49:34.408Z,7.20
2018-05-09T05:50:34.328Z,7.20
2018-05-09T05:52:27.729Z,7.00
2018-05-09T05:53:27.545Z,7.40
2018-05-09T05:55:20.927Z,7.60
2018-05-09T05:56:20.760Z,6.90
2018-05-09T05:58:14.046Z,7.30
2018-05-09T05:59:13.966Z,6.30
2018-05-09T06:01:07.245Z,8.10
2018-05-09T06:02:07.184Z,7.30
2018-05-09T06:04:00.480Z,7.00
2018-05-09T06:05:00.403Z,7.10
2018-05-09T06:06:53.667Z,7.00
2018-05-09T06:07:53.648Z,7.10
2018-05-09T06:09:46.907Z,6.80
2018-05-09T06:10:46.822Z,6.40
2018-05-09T06:12:40.128Z,7.30
2018-05-09T06:13:40.041Z,7.30
2018-05-09T06:15:33.319Z,7.50
2018-05-09T06:16:33.262Z,7.40
2018-05-09T06:18:26.565Z,7.10
2018-05-09T06:19:26.484Z,7.70
2018-05-09T06:21:19.768Z,7.50
2018-05-09T06:22:19.703Z,7.10
2018-05-09T06:24:13.021Z,8.40
2018-05-09T06:25:12.922Z,7.20
2018-05-09T06:27:06.195Z,7.10
2018-05-09T06:28:06.134Z,7.20
2018-05-09T06:29:59.446Z,6.90
2018-05-09T06:30:59.363Z,7.40
2018-05-09T06:32:52.762Z,6.60
2018-05-09T06:33:52.582Z,6.70
2018-05-09T06:35:45.865Z,7.90
2018-05-09T06:36:45.805Z,7.30
2018-05-09T06:38:39.103Z,7.20
2018-05-09T06:39:39.023Z,7.60
2018-05-09T06:41:32.376Z,6.50
2018-05-09T06:42:32.266Z,6.70
2018-05-09T06:44:25.605Z,6.60
2018-05-09T06:45:25.482Z,6.40
2018-05-09T06:47:18.753Z,6.90
2018-05-09T06:48:18.695Z,6.90
2018-05-09T06:50:11.996Z,6.70
2018-05-09T06:51:11.918Z,6.90
2018-05-09T06:53:05.216Z,6.60
2018-05-09T06:54:05.138Z,6.40
2018-05-09T06:55:58.415Z,6.30
2018-05-09T06:56:58.359Z,5.90
2018-05-09T06:58:51.655Z,6.10
2018-05-09T06:59:51.619Z,6.30
2018-05-09T07:01:44.973Z,6.20
2018-05-09T07:02:44.804Z,6.60
2018-05-09T07:04:38.103Z,6.50
2018-05-09T07:05:38.027Z,5.70
2018-05-09T07:07:31.307Z,6.40
2018-05-09T07:08:31.258Z,5.90
2018-05-09T07:10:24.670Z,7.30
2018-05-09T07:11:24.479Z,6.90
2018-05-09T07:13:17.790Z,6.20
2018-05-09T07:14:17.715Z,6.40
2018-05-09T07:16:10.999Z,6.40
2018-05-09T07:17:10.947Z,6.30
2018-05-09T07:19:05.259Z,5.90
2018-05-09T07:20:05.185Z,5.40
2018-05-09T07:21:58.469Z,5.40
2018-05-09T07:22:58.415Z,5.70
2018-05-09T07:24:52.719Z,5.50
2018-05-09T07:25:52.647Z,5.80
2018-05-09T07:27:45.935Z,5.90
2018-05-09T07:28:45.880Z,5.10
2018-05-09T07:30:39.186Z,5.90
2018-05-09T07:31:39.113Z,5.40
2018-05-09T07:33:32.418Z,5.10
2018-05-09T07:34:32.344Z,5.30
2018-05-09T07:36:25.739Z,5.40
2018-05-09T07:37:25.579Z,4.90
2018-05-09T07:39:18.882Z,5.90
2018-05-09T07:40:18.811Z,5.80
2018-05-09T07:42:13.136Z,5.20
2018-05-09T07:43:13.048Z,5.60
2018-05-09T07:45:06.352Z,5.20
2018-05-09T07:46:06.276Z,5.10
2018-05-09T07:48:00.243Z,5.50
2018-05-09T07:48:59.516Z,5.30
2018-05-09T07:50:52.865Z,5.90
2018-05-09T07:51:52.795Z,5.30
2018-05-09T07:53:46.099Z,5.60
2018-05-09T07:54:46.026Z,5.30
2018-05-09T07:56:39.321Z,5.60
2018-05-09T07:57:39.255Z,6.00
2018-05-09T07:59:32.564Z,5.80
2018-05-09T08:00:32.487Z,5.80
2018-05-09T08:02:25.880Z,6.20
2018-05-09T08:03:25.721Z,5.70
2018-05-09T08:05:19.020Z,6.40
2018-05-09T08:06:18.948Z,5.40
2018-05-09T08:08:12.841Z,5.90
2018-05-09T08:09:12.179Z,5.70
2018-05-09T08:11:05.483Z,5.90
2018-05-09T08:12:05.411Z,5.90
2018-05-09T08:13:58.828Z,6.20
2018-05-09T08:14:58.646Z,6.20
2018-05-09T08:16:51.979Z,5.30
2018-05-09T08:17:51.931Z,5.60
2018-05-09T08:19:45.230Z,6.60
2018-05-09T08:20:45.158Z,6.20
2018-05-09T08:22:38.554Z,6.40
2018-05-09T08:23:38.390Z,6.60
2018-05-09T08:25:31.796Z,5.80
2018-05-09T08:26:31.624Z,5.60
2018-05-09T08:28:25.015Z,6.50
2018-05-09T08:29:24.856Z,6.80
2018-05-09T08:31:18.158Z,6.70
2018-05-09T08:32:18.138Z,6.50
2018-05-09T08:34:11.390Z,6.40
2018-05-09T08:35:11.320Z,6.70
2018-05-09T08:37:05.604Z,6.10
2018-05-09T08:38:05.550Z,5.50
2018-05-09T08:39:58.962Z,5.50
2018-05-09T08:40:58.817Z,5.00
2018-05-09T08:42:52.176Z,5.50
2018-05-09T08:43:52.123Z,5.20
2018-05-09T08:45:45.358Z,6.40
2018-05-09T08:46:45.267Z,6.10
2018-05-09T08:48:38.652Z,6.60
2018-05-09T08:49:38.492Z,6.30
2018-05-09T08:51:31.819Z,5.60
2018-05-09T08:52:31.742Z,5.50
2018-05-09T08:54:25.199Z,5.60
2018-05-09T08:55:25.032Z,6.80
2018-05-09T08:57:18.334Z,5.30
2018-05-09T08:58:18.284Z,5.10
2018-05-09T09:00:11.618Z,5.20
2018-05-09T09:01:11.543Z,4.80
2018-05-09T09:03:04.810Z,4.40
2018-05-09T09:04:04.760Z,4.20
2018-05-09T09:05:59.076Z,4.30
2018-05-09T09:06:59.006Z,4.60
2018-05-09T09:08:52.345Z,4.70
2018-05-09T09:09:52.292Z,4.50
2018-05-09T09:11:46.607Z,4.60
2018-05-09T09:12:46.525Z,4.40
2018-05-09T09:14:39.854Z,4.40
2018-05-09T09:15:39.849Z,4.10
2018-05-09T09:17:33.154Z,4.50
2018-05-09T09:18:33.039Z,4.60
2018-05-09T09:20:26.409Z,4.40
2018-05-09T09:21:26.280Z,4.40
2018-05-09T09:23:19.580Z,3.60
2018-05-09T09:24:19.530Z,3.80
2018-05-09T09:26:13.826Z,3.70
2018-05-09T09:27:13.755Z,4.10
2018-05-09T09:29:07.089Z,4.70
2018-05-09T09:30:06.992Z,4.40
2018-05-09T09:32:00.354Z,4.10
2018-05-09T09:33:00.289Z,4.10
2018-05-09T09:34:53.593Z,4.00
2018-05-09T09:35:53.551Z,4.00
2018-05-09T09:37:46.832Z,4.20
2018-05-09T09:38:46.765Z,4.00
2018-05-09T09:40:40.181Z,3.90
2018-05-09T09:41:40.004Z,3.90
2018-05-09T09:43:33.399Z,3.50
2018-05-09T09:44:33.243Z,3.50
2018-05-09T09:46:26.551Z,3.40
2018-05-09T09:47:26.483Z,3.50
2018-05-09T09:49:19.778Z,3.60
2018-05-09T09:50:19.732Z,3.70
2018-05-09T09:52:13.035Z,3.90
2018-05-09T09:53:12.966Z,3.60
2018-05-09T09:55:06.353Z,3.30
2018-05-09T09:56:06.284Z,3.80
2018-05-09T09:57:59.682Z,3.30
2018-05-09T09:58:59.540Z,3.70
2018-05-09T10:00:52.850Z,4.30
2018-05-09T10:01:52.786Z,4.10
2018-05-09T10:03:46.072Z,4.00
2018-05-09T10:04:46.027Z,4.30
2018-05-09T10:06:39.340Z,4.40
2018-05-09T10:07:39.273Z,3.90
2018-05-09T10:09:32.675Z,4.50
2018-05-09T10:10:32.516Z,4.50
2018-05-09T10:12:25.832Z,4.00
2018-05-09T10:13:25.765Z,3.90
2018-05-09T10:15:19.081Z,3.80
2018-05-09T10:16:19.098Z,3.70
2018-05-09T10:18:12.337Z,4.40
2018-05-09T10:19:12.287Z,3.90
2018-05-09T10:21:05.606Z,4.80
2018-05-09T10:22:05.534Z,4.60
2018-05-09T10:23:58.937Z,4.00
2018-05-09T10:24:58.782Z,3.90
2018-05-09T10:26:52.202Z,3.80
2018-05-09T10:27:52.038Z,3.70
2018-05-09T10:29:45.328Z,3.80
2018-05-09T10:30:45.281Z,4.00
2018-05-09T10:32:38.595Z,3.30
2018-05-09T10:33:38.533Z,3.50
2018-05-09T10:35:31.953Z,4.00
2018-05-09T10:36:31.780Z,3.70
2018-05-09T10:38:25.184Z,4.00
2018-05-09T10:39:25.033Z,4.30
2018-05-09T10:41:18.365Z,4.30
2018-05-09T10:42:18.286Z,3.90
2018-05-09T10:44:11.603Z,4.10
2018-05-09T10:45:11.541Z,4.00
2018-05-09T10:47:04.962Z,4.40
2018-05-09T10:48:04.792Z,4.00
2018-05-09T10:49:58.194Z,4.50
2018-05-09T10:50:58.042Z,4.10
2018-05-09T10:52:51.464Z,4.30
2018-05-09T10:53:51.290Z,4.30
2018-05-09T10:55:44.605Z,3.80
2018-05-09T10:56:44.539Z,4.50
2018-05-09T10:58:37.834Z,4.20
2018-05-09T10:59:37.787Z,3.90
2018-05-09T11:01:31.101Z,3.80
2018-05-09T11:02:31.036Z,4.20
2018-05-09T11:04:24.335Z,3.50
2018-05-09T11:05:24.311Z,3.70
2018-05-09T11:07:17.644Z,3.70
2018-05-09T11:08:17.576Z,3.70
2018-05-09T11:10:10.869Z,4.10
2018-05-09T11:11:10.821Z,4.00
2018-05-09T11:13:04.133Z,4.00
2018-05-09T11:14:04.067Z,3.80
2018-05-09T11:15:57.413Z,3.90
2018-05-09T11:16:57.336Z,3.90
2018-05-09T11:18:50.718Z,3.70
2018-05-09T11:19:50.563Z,3.90
2018-05-09T11:21:43.877Z,3.70
2018-05-09T11:22:43.809Z,3.90
2018-05-09T11:24:37.190Z,4.50
2018-05-09T11:25:37.052Z,4.50
2018-05-09T11:27:30.364Z,4.00
2018-05-09T11:28:30.289Z,4.40
2018-05-09T11:30:23.578Z,4.60
2018-05-09T11:31:23.528Z,4.00
2018-05-09T11:33:16.837Z,4.30
2018-05-09T11:34:16.763Z,4.40
2018-05-09T11:36:10.178Z,3.90
2018-05-09T11:37:10.000Z,4.10
2018-05-09T11:39:03.896Z,4.20
2018-05-09T11:40:03.237Z,4.00
2018-05-09T11:41:56.550Z,4.60
2018-05-09T11:42:56.474Z,4.30
2018-05-09T11:44:49.768Z,4.30
2018-05-09T11:45:49.709Z,4.10
2018-05-09T11:47:43.625Z,5.30
2018-05-09T11:48:42.944Z,4.40
2018-05-09T11:50:36.339Z,4.10
2018-05-09T11:51:36.179Z,4.20
2018-05-09T11:53:29.484Z,4.60
2018-05-09T11:54:29.429Z,4.50
2018-05-09T11:56:22.726Z,4.50
2018-05-09T11:57:22.658Z,4.50
2018-05-09T11:59:15.940Z,4.50
2018-05-09T12:00:15.889Z,4.40
2018-05-09T12:02:09.329Z,4.90
2018-05-09T12:03:09.133Z,4.70
2018-05-09T12:05:02.530Z,4.80
2018-05-09T12:06:02.385Z,4.40
2018-05-09T12:07:56.685Z,4.80
2018-05-09T12:08:56.614Z,4.50
2018-05-09T12:10:50.222Z,4.50
2018-05-09T12:11:49.848Z,4.40
2018-05-09T12:13:43.135Z,4.60
2018-05-09T12:14:43.083Z,4.80
2018-05-09T12:16:36.388Z,4.90
2018-05-09T12:17:36.317Z,4.60
2018-05-09T12:19:29.605Z,4.10
2018-05-09T12:20:29.646Z,4.10
2018-05-09T12:22:22.859Z,4.30
2018-05-09T12:23:22.786Z,4.10
2018-05-09T12:25:16.177Z,4.60
2018-05-09T12:26:16.070Z,4.40
2018-05-09T12:28:09.483Z,3.90
2018-05-09T12:29:09.302Z,4.00
2018-05-09T12:31:03.625Z,4.00
2018-05-09T12:32:03.537Z,4.00
2018-05-09T12:33:56.823Z,3.90
2018-05-09T12:34:56.772Z,4.60
2018-05-09T12:36:50.074Z,3.80
2018-05-09T12:37:50.006Z,3.90
2018-05-09T12:39:43.307Z,3.70
2018-05-09T12:40:43.242Z,4.00
2018-05-09T12:42:36.598Z,4.10
2018-05-09T12:43:36.494Z,3.90
2018-05-09T12:45:29.891Z,3.90
2018-05-09T12:46:29.731Z,3.90
2018-05-09T12:48:23.051Z,4.30
2018-05-09T12:49:22.979Z,4.20
2018-05-09T12:51:16.360Z,3.00
2018-05-09T12:52:16.280Z,3.20
2018-05-09T12:54:09.571Z,3.80
2018-05-09T12:55:09.519Z,3.20
2018-05-09T12:57:02.933Z,3.50
2018-05-09T12:58:02.755Z,4.20
2018-05-09T12:59:56.049Z,3.40
2018-05-09T13:00:55.998Z,4.30
2018-05-09T13:02:49.310Z,3.90
2018-05-09T13:03:49.250Z,3.10
2018-05-09T13:05:42.537Z,3.80
2018-05-09T13:06:42.484Z,3.80
2018-05-09T13:08:35.802Z,3.30
2018-05-09T13:09:35.732Z,3.70
2018-05-09T13:11:29.143Z,3.90
2018-05-09T13:12:28.973Z,3.20
2018-05-09T13:14:22.331Z,3.50
2018-05-09T13:15:22.278Z,3.40
2018-05-09T13:17:15.585Z,3.50
2018-05-09T13:18:15.512Z,3.80
2018-05-09T13:20:08.808Z,4.10
2018-05-09T13:21:08.757Z,3.60
2018-05-09T13:23:02.070Z,3.80
2018-05-09T13:24:02.009Z,3.30
2018-05-09T13:25:55.376Z,3.50
2018-05-09T13:26:55.242Z,4.00
2018-05-09T13:28:48.658Z,4.10
2018-05-09T13:29:48.505Z,4.60
2018-05-09T13:31:41.980Z,4.00
2018-05-09T13:32:41.753Z,4.30
2018-05-09T13:34:35.142Z,4.10
2018-05-09T13:35:34.994Z,3.70
2018-05-09T13:37:28.411Z,3.50
2018-05-09T13:38:28.280Z,4.20
2018-05-09T13:40:21.578Z,3.90
2018-05-09T13:41:21.525Z,3.60
2018-05-09T13:43:14.842Z,3.50
2018-05-09T13:44:14.770Z,3.50
2018-05-09T13:46:08.081Z,3.20
2018-05-09T13:47:08.018Z,3.60
2018-05-09T13:49:01.333Z,4.00
2018-05-09T13:50:01.263Z,3.70
2018-05-09T13:51:54.678Z,3.50
2018-05-09T13:52:54.506Z,3.60
2018-05-09T13:54:48.402Z,3.80
2018-05-09T13:55:47.755Z,4.00
2018-05-09T13:57:41.065Z,4.10
2018-05-09T13:58:40.994Z,3.80
2018-05-09T14:00:34.337Z,3.80
2018-05-09T14:01:34.281Z,3.40
2018-05-09T14:03:27.695Z,3.30
2018-05-09T14:04:27.530Z,3.40
2018-05-09T14:06:20.829Z,3.90
2018-05-09T14:07:20.778Z,4.30
2018-05-09T14:09:14.096Z,3.70
2018-05-09T14:10:14.025Z,4.10
2018-05-09T14:12:07.343Z,3.90
2018-05-09T14:13:07.272Z,4.20
2018-05-09T14:15:01.571Z,3.60
2018-05-09T14:16:01.518Z,4.10
2018-05-09T14:17:54.828Z,3.90
2018-05-09T14:18:54.791Z,4.00
2018-05-09T14:20:48.152Z,3.40
2018-05-09T14:21:48.002Z,3.30
2018-05-09T14:23:41.318Z,3.70
2018-05-09T14:24:41.246Z,3.50
2018-05-09T14:26:35.148Z,4.20
2018-05-09T14:27:34.491Z,3.10
2018-05-09T14:29:27.907Z,3.90
2018-05-09T14:30:27.737Z,3.60
2018-05-09T14:32:21.125Z,3.90
2018-05-09T14:33:20.980Z,4.00
2018-05-09T14:35:14.331Z,4.10
2018-05-09T14:36:14.280Z,4.30
2018-05-09T14:38:07.594Z,4.10
2018-05-09T14:39:07.520Z,4.30
2018-05-09T14:41:00.817Z,4.10
2018-05-09T14:42:00.768Z,4.30
2018-05-09T14:43:54.080Z,3.60
2018-05-09T14:44:54.007Z,3.80
2018-05-09T14:46:47.511Z,4.50
2018-05-09T14:47:47.250Z,4.30
2018-05-09T14:49:40.668Z,4.00
2018-05-09T14:50:40.497Z,4.00
2018-05-09T14:52:33.910Z,4.10
2018-05-09T14:53:33.740Z,3.70
2018-05-09T14:55:27.134Z,4.10
2018-05-09T14:56:26.982Z,4.20
2018-05-09T14:58:20.352Z,4.40
2018-05-09T14:59:20.283Z,4.40
2018-05-09T15:01:13.636Z,4.50
2018-05-09T15:02:13.529Z,5.00
2018-05-09T15:04:06.842Z,3.80
2018-05-09T15:05:06.790Z,4.20
2018-05-09T15:07:00.064Z,4.20
2018-05-09T15:08:00.013Z,4.30
2018-05-09T15:09:54.348Z,5.10
2018-05-09T15:10:54.276Z,5.00
2018-05-09T15:12:47.589Z,4.20
2018-05-09T15:13:47.519Z,3.80
2018-05-09T15:15:40.911Z,4.10
2018-05-09T15:16:40.760Z,4.30
2018-05-09T15:18:34.076Z,4.40
2018-05-09T15:19:34.071Z,4.20
2018-05-09T15:21:27.295Z,4.40
2018-05-09T15:22:27.247Z,4.30
2018-05-09T15:24:20.556Z,4.80
2018-05-09T15:25:20.539Z,4.50
2018-05-09T15:27:13.770Z,5.40
2018-05-09T15:28:13.717Z,5.20
2018-05-09T15:30:07.032Z,4.50
2018-05-09T15:31:06.958Z,4.70
2018-05-09T15:33:00.351Z,4.30
2018-05-09T15:34:00.276Z,4.70
2018-05-09T15:35:53.573Z,4.70
2018-05-09T15:36:53.521Z,4.40
2018-05-09T15:38:46.919Z,4.10
2018-05-09T15:39:46.762Z,4.10
2018-05-09T15:41:40.058Z,4.20
2018-05-09T15:42:40.006Z,4.00
2018-05-09T15:44:33.323Z,4.00
2018-05-09T15:45:33.248Z,4.40
2018-05-09T15:47:26.533Z,4.30
2018-05-09T15:48:26.480Z,4.30
2018-05-09T15:50:19.851Z,4.50
2018-05-09T15:51:19.724Z,4.30
2018-05-09T15:53:13.056Z,4.90
2018-05-09T15:54:12.983Z,4.10
2018-05-09T15:56:06.379Z,4.00
2018-05-09T15:57:06.294Z,4.00
2018-05-09T15:58:59.609Z,4.00
2018-05-09T15:59:59.537Z,3.80
2018-05-09T16:01:52.832Z,4.10
2018-05-09T16:02:52.779Z,4.10
2018-05-09T16:04:46.097Z,3.90
2018-05-09T16:05:46.024Z,4.20
2018-05-09T16:07:39.320Z,4.10
2018-05-09T16:08:39.268Z,3.90
2018-05-09T16:10:32.705Z,4.30
2018-05-09T16:11:32.512Z,4.30
2018-05-09T16:13:25.923Z,4.00
2018-05-09T16:14:25.752Z,4.10
2018-05-09T16:16:19.047Z,4.10
2018-05-09T16:17:18.994Z,4.20
2018-05-09T16:19:12.322Z,3.90
2018-05-09T16:20:12.250Z,3.60
2018-05-09T16:22:05.546Z,3.80
2018-05-09T16:23:05.507Z,4.30
2018-05-09T16:24:59.804Z,3.90
2018-05-09T16:25:59.733Z,4.00
2018-05-09T16:27:53.032Z,4.00
2018-05-09T16:28:52.975Z,4.50
2018-05-09T16:30:46.293Z,5.20
2018-05-09T16:31:46.217Z,3.80
2018-05-09T16:33:39.533Z,4.50
2018-05-09T16:34:39.459Z,4.20
2018-05-09T16:36:32.855Z,3.60
2018-05-09T16:37:32.699Z,3.90
2018-05-09T16:39:26.026Z,4.30
2018-05-09T16:40:25.946Z,4.20
2018-05-09T16:42:19.249Z,4.00
2018-05-09T16:43:19.183Z,4.10
2018-05-09T16:45:12.495Z,3.90
2018-05-09T16:46:12.422Z,3.60
2018-05-09T16:48:05.717Z,4.40
2018-05-09T16:49:05.668Z,4.80
2018-05-09T16:50:58.974Z,4.10
2018-05-09T16:51:58.902Z,4.50
2018-05-09T16:53:52.216Z,4.20
2018-05-09T16:54:52.143Z,4.10
2018-05-09T16:56:45.443Z,4.30
2018-05-09T16:57:45.389Z,4.10
2018-05-09T16:59:38.715Z,4.60
2018-05-09T17:00:38.633Z,5.10
2018-05-09T17:02:32.023Z,4.20
2018-05-09T17:03:31.871Z,4.70
2018-05-09T17:05:25.324Z,4.70
2018-05-09T17:06:25.116Z,4.70
2018-05-09T17:08:18.412Z,4.30
2018-05-09T17:09:18.355Z,5.30
2018-05-09T17:11:11.670Z,4.90
2018-05-09T17:12:11.596Z,5.10
2018-05-09T17:14:04.929Z,5.00
2018-05-09T17:15:04.870Z,4.80
2018-05-09T17:16:58.162Z,4.40
2018-05-09T17:17:58.107Z,4.40
2018-05-09T17:19:51.427Z,4.60
2018-05-09T17:20:51.349Z,4.50
2018-05-09T17:22:44.643Z,5.10
2018-05-09T17:23:44.589Z,4.80
2018-05-09T17:25:37.901Z,4.90
2018-05-09T17:26:37.835Z,4.20
2018-05-09T17:28:31.123Z,4.70
2018-05-09T17:29:31.069Z,4.40
2018-05-09T17:31:24.382Z,4.40
2018-05-09T17:32:24.311Z,5.10
2018-05-09T17:34:17.624Z,5.40
2018-05-09T17:35:17.549Z,4.50
2018-05-09T17:37:10.844Z,4.60
2018-05-09T17:38:10.791Z,4.90
2018-05-09T17:40:04.112Z,5.10
2018-05-09T17:41:04.029Z,4.70
2018-05-09T17:42:57.330Z,4.90
2018-05-09T17:43:57.275Z,4.50
2018-05-09T17:45:50.588Z,4.90
2018-05-09T17:46:50.533Z,4.80
2018-05-09T17:48:43.828Z,5.20
2018-05-09T17:49:43.773Z,4.70
2018-05-09T17:51:37.084Z,5.00
2018-05-09T17:52:37.011Z,4.70
2018-05-09T17:54:30.326Z,5.40
2018-05-09T17:55:30.252Z,5.30
2018-05-09T17:57:23.537Z,5.20
2018-05-09T17:58:23.483Z,5.50
2018-05-09T18:00:16.794Z,4.90
2018-05-09T18:01:16.719Z,5.00
2018-05-09T18:03:10.016Z,5.00
2018-05-09T18:04:09.961Z,5.70
2018-05-09T18:06:03.348Z,5.40
2018-05-09T18:07:03.276Z,4.60
2018-05-09T18:08:56.568Z,5.20
2018-05-09T18:09:56.513Z,4.90
2018-05-09T18:11:49.827Z,5.10
2018-05-09T18:12:49.753Z,4.90
2018-05-09T18:14:43.160Z,5.30
2018-05-09T18:15:42.993Z,5.10
2018-05-09T18:17:36.273Z,4.90
2018-05-09T18:18:36.228Z,5.30
2018-05-09T18:20:29.620Z,5.40
2018-05-09T18:21:29.455Z,4.80
2018-05-09T18:23:22.752Z,5.10
2018-05-09T18:24:22.697Z,5.20
2018-05-09T18:26:16.107Z,5.40
2018-05-09T18:27:15.934Z,5.30
2018-05-09T18:29:09.229Z,5.10
2018-05-09T18:30:09.172Z,5.20
2018-05-09T18:32:02.483Z,5.00
2018-05-09T18:33:02.411Z,5.70
2018-05-09T18:34:55.729Z,4.50
2018-05-09T18:35:55.655Z,4.80
2018-05-09T18:37:48.950Z,5.40
2018-05-09T18:38:48.894Z,5.20
2018-05-09T18:40:42.212Z,5.30
2018-05-09T18:41:42.132Z,5.20
2018-05-09T18:43:35.423Z,4.80
2018-05-09T18:44:35.369Z,4.80
2018-05-09T18:46:28.681Z,5.60
2018-05-09T18:47:28.611Z,5.00
2018-05-09T18:49:21.897Z,5.60
2018-05-09T18:50:21.842Z,4.90
2018-05-09T18:52:15.152Z,5.00
2018-05-09T18:53:15.080Z,4.80
2018-05-09T18:55:08.393Z,5.70
2018-05-09T18:56:08.318Z,4.90
2018-05-09T18:58:01.600Z,5.60
2018-05-09T18:59:01.548Z,5.60
2018-05-09T19:00:54.857Z,4.90
2018-05-09T19:01:54.782Z,4.70
2018-05-09T19:03:48.073Z,5.10
2018-05-09T19:04:48.019Z,5.00
2018-05-09T19:06:41.347Z,5.80
2018-05-09T19:07:41.274Z,5.30
2018-05-09T19:09:34.564Z,5.70
2018-05-09T19:10:34.509Z,4.80
2018-05-09T19:12:27.820Z,5.40